Terminal Aerodrome Forecast
Issued by NWS

Home | Current Version | Previous Version | Text Only | Print | Product List | Glossary Off
Versions: 1 2 3 4 5 6 7 8 9 10 11 12 13 14 15 16 17 18 19

000
FTUS43 KPAH 221740
TAFCGI
TAF
KCGI 221740Z 2218/2318 03014G23KT 6SM -SHRA BR OVC015
      TEMPO 2218/2219 4SM -SHRA BR OVC010
     FM222000 03014G23KT P6SM VCSH OVC020
     FM230200 01012KT P6SM VCSH OVC035
     FM230600 01011KT P6SM BKN050
     FM231400 01013G22KT P6SM SKC=

USA.gov is the U.S. government's official web portal to all federal, state and local government web resources and services.